Time,TemperatureF,DewpointF,PressureIn,WindDirection,WindDirectionDegrees,WindSpeedMPH,WindSpeedGustMPH,Humidity,HourlyPrecipIn,Conditions,Clouds,dailyrainin,SoftwareType,DateUTC
2013-09-30 00:43:00,60.0,-99.9,-100.00,South,174,5.0,7.0,-999,-99.99,,,-99.99,,2013-09-30 05:43:00,
2013-09-30 00:52:00,60.0,-99.9,-100.00,South,174,5.0,7.0,-999,-99.99,,,-99.99,,2013-09-30 05:52:00,
2013-09-30 02:12:00,60.0,-99.9,-100.00,South,180,8.0,9.0,-999,-99.99,,,-99.99,,2013-09-30 07:12:00,
2013-09-30 02:22:00,60.0,-99.9,-100.00,South,180,8.0,9.0,-999,-99.99,,,-99.99,,2013-09-30 07:22:00,
2013-09-30 02:42:00,60.0,-99.9,-100.00,South,177,3.0,10.0,-999,-99.99,,,-99.99,,2013-09-30 07:42:00,
2013-09-30 03:12:00,58.0,-99.9,-100.00,WSW,241,4.0,6.0,-999,-99.99,,,-99.99,,2013-09-30 08:12:00,
2013-09-30 03:22:00,56.0,-99.9,-100.00,SW,214,6.0,8.0,-999,-99.99,,,-99.99,,2013-09-30 08:22:00,
2013-09-30 03:32:00,56.0,-99.9,-100.00,SW,214,6.0,8.0,-999,-99.99,,,-99.99,,2013-09-30 08:32:00,
2013-09-30 05:13:00,55.0,-99.9,-100.00,SSW,201,6.0,8.0,-999,-99.99,,,-99.99,,2013-09-30 10:13:00,
2013-09-30 06:20:00,56.0,-99.9,-100.00,South,183,9.0,10.0,-999,-99.99,,,-99.99,,2013-09-30 11:20:00,
2013-09-30 07:12:00,56.0,-99.9,-100.00,South,183,9.0,10.0,-999,-99.99,,,-99.99,,2013-09-30 12:12:00,
2013-09-30 08:20:00,58.0,-99.9,-100.00,South,177,2.0,5.0,-999,-99.99,,,-99.99,,2013-09-30 13:20:00,
2013-09-30 09:10:00,67.0,-99.9,-100.00,SW,231,8.0,10.0,-999,-99.99,,,-99.99,,2013-09-30 14:10:00,
2013-09-30 09:11:00,58.0,-99.9,-100.00,South,177,2.0,5.0,-999,-99.99,,,-99.99,,2013-09-30 14:11:00,
2013-09-30 09:53:00,67.0,-99.9,-100.00,SW,231,8.0,10.0,-999,-99.99,,,-99.99,,2013-09-30 14:53:00,
2013-09-30 10:02:00,67.0,-99.9,-100.00,SW,231,8.0,10.0,-999,-99.99,,,-99.99,,2013-09-30 15:02:00,
2013-09-30 11:10:00,77.0,-99.9,-100.00,WSW,255,7.0,15.0,-999,-99.99,,,-99.99,,2013-09-30 16:10:00,
2013-09-30 11:54:00,77.0,-99.9,-100.00,WSW,255,7.0,15.0,-999,-99.99,,,-99.99,,2013-09-30 16:54:00,
2013-09-30 12:04:00,77.0,-99.9,-100.00,WSW,255,7.0,15.0,-999,-99.99,,,-99.99,,2013-09-30 17:04:00,
2013-09-30 13:12:00,83.0,-99.9,-100.00,SE,125,1.0,9.0,-999,-99.99,,,-99.99,,2013-09-30 18:12:00,
2013-09-30 13:22:00,83.0,-99.9,-100.00,SE,125,1.0,9.0,-999,-99.99,,,-99.99,,2013-09-30 18:22:00,
2013-09-30 15:00:00,87.0,-99.9,-100.00,NNW,331,6.0,11.0,-999,-99.99,,,-99.99,,2013-09-30 20:00:00,
2013-09-30 15:13:00,81.0,-99.9,-100.00,WNW,299,12.0,18.0,-999,-99.99,,,-99.99,,2013-09-30 20:13:00,
2013-09-30 15:23:00,81.0,-99.9,-100.00,WNW,299,12.0,18.0,-999,-99.99,,,-99.99,,2013-09-30 20:23:00,
2013-09-30 15:53:00,87.0,-99.9,-100.00,NNW,331,6.0,11.0,-999,-99.99,,,-99.99,,2013-09-30 20:53:00,
2013-09-30 16:23:00,86.0,-99.9,-100.00,WSW,256,12.0,16.0,-999,-99.99,,,-99.99,,2013-09-30 21:23:00,
2013-09-30 16:30:00,87.0,-99.9,-100.00,WSW,254,11.0,18.0,-999,-99.99,,,-99.99,,2013-09-30 21:30:00,
2013-09-30 16:34:00,86.0,-99.9,-100.00,WSW,256,12.0,16.0,-999,-99.99,,,-99.99,,2013-09-30 21:34:00,
2013-09-30 17:13:00,87.0,-99.9,-100.00,WSW,254,11.0,18.0,-999,-99.99,,,-99.99,,2013-09-30 22:13:00,
2013-09-30 17:24:00,87.0,-99.9,-100.00,WSW,254,11.0,18.0,-999,-99.99,,,-99.99,,2013-09-30 22:24:00,
2013-09-30 18:30:00,82.0,-99.9,-100.00,West,276,12.0,16.0,-999,-99.99,,,-99.99,,2013-09-30 23:30:00,
2013-09-30 19:12:00,82.0,-99.9,-100.00,West,276,12.0,16.0,-999,-99.99,,,-99.99,,2013-10-01 00:12:00,
2013-09-30 19:23:00,82.0,-99.9,-100.00,West,276,12.0,16.0,-999,-99.99,,,-99.99,,2013-10-01 00:23:00,
2013-09-30 20:52:00,73.0,-99.9,-100.00,East,85,4.0,4.0,-999,-99.99,,,-99.99,,2013-10-01 01:52:00,
2013-09-30 21:02:00,73.0,-99.9,-100.00,East,85,4.0,4.0,-999,-99.99,,,-99.99,,2013-10-01 02:02:00,
2013-09-30 21:10:00,68.0,-99.9,-100.00,South,174,3.0,6.0,-999,-99.99,,,-99.99,,2013-10-01 02:10:00,
2013-09-30 21:52:00,68.0,-99.9,-100.00,South,174,3.0,6.0,-999,-99.99,,,-99.99,,2013-10-01 02:52:00,
2013-09-30 22:03:00,68.0,-99.9,-100.00,South,174,3.0,6.0,-999,-99.99,,,-99.99,,2013-10-01 03:03:00,